• Back
  •  
  • Position of Reservoir Gates
S.No.
No. of opened gates
Position of opening (In m)
Reporting Date
Reporting Time
Discharge in Cumecs
Discharge in Cusecs
Actual date and time of Gate opening
1
2
3
4
5
6
7
8
1 1 0.2 04/10/2021 8:00:00 AM 3.2 113.01 4.10.21 8am
2 1 0.2 05/10/2021 8:00:00 AM 3.2 113.01 5.10.21 9am
3 1 0.1 05/10/2021 8:00:00 PM 1.12 39.55
4 1 0.1 06/10/2021 8:00:00 AM 1.12 39.55 6.10.21 8am
5 1 0.1 07/10/2021 8:00:00 PM 1.12 39.55
6 1 0.1 08/10/2021 8:00:00 AM 1.12 39.55 8.10.21 8am
7 1 0.1 11/10/2021 8:00:00 AM 1.12 39.55 11.10.21 8am
8 1 0.1 12/10/2021 8:00:00 AM 1.12 39.55
9 0 0 12/10/2021 4:00:00 PM 0 0
10 1 11/08/2016 8:00:00 AM 15
11 5 0.15 13/09/2021 8:00:00 AM 3.22 113.71 13.9.21
12 3 0.15 13/09/2021 12:00:00 PM 3.22 113.71 13.9.21 12 pm
13 2 0.5 14/09/2021 8:00:00 AM 9.42 332.67 14.9.21 8 am
14 2 0.5 14/09/2021 12:00:00 PM 9.42 332.67 14.9.21 12am
15 2 0.5 15/09/2021 8:00:00 AM 19.2 678.05 15.9.21 8am
16 2 0.5 15/09/2021 12:00:00 PM 9.42 332.67 15.9.21 12 am
17 2 0.5 16/09/2021 8:00:00 AM 9.42 332.67 16/09/2021
18 2 0.5 17/09/2021 8:00:00 AM 9.43 333.02 17/09/2021
19 2 0.5 17/09/2021 8:00:00 AM 9.43 333.02 17.9.21 8am
20 0 0 17/09/2021 8:00:00 PM 0 0
21 1 0.1 19/09/2021 8:00:00 AM 9.42 332.67
22 2 0.2 20/09/2021 8:00:00 AM 6.36 224.6 20/09/2021
23 2 0.25 20/09/2021 4:00:00 PM 9.02 318.54
24 3 0.3 21/09/2021 8:00:00 PM 17.52 618.72
25 2 0.1 22/09/2021 8:00:00 AM 2.25 79.46 22/09/2021
26 1 0.1 22/09/2021 8:00:00 PM 2.25 79.46
27 1 0.15 25/09/2021 8:00:00 AM 2.25 79.46
28 2 0.33 26/09/2021 8:00:00 AM 27.27 963.04
29 1 0.5 27/09/2021 8:00:00 AM 14.71 519.48 27.9.21 8am
30 0 0 27/09/2021 12:00:00 PM 0 0 27.9.21 12pm
31 1 0.1 28/09/2021 8:00:00 PM 1.12 39.55
32 1 0.01 29/09/2021 8:00:00 AM 1.12 39.55 29.8.21 8am
33 1 0.1 29/09/2021 4:00:00 PM 1.12 39.55
34 1 0.01 30/09/2021 8:00:00 AM 1.12 39.55 30.9.21 8am
35 1 0.01 01/10/2021 8:00:00 AM 1.12 39.55 1.10.218am
36 1 10 01/10/2021 8:00:00 AM 1.12 39.55 1.10.218am
37 1 0.1 01/10/2021 8:00:00 AM 1.12 39.55 1.10.218am
38 1 0.1 02/10/2021 8:00:00 AM 1.12 39.55
39 1 0.2 03/10/2021 8:00:00 AM 3.2 113.01
40 3 0.3 27/07/2019 12:30:00 AM 43 1518.54
41 1 0.3 27/07/2019 8:00:00 AM 43 1518.54
42 1 0.3 28/07/2019 12:01:00 AM 43 1518.54
43 1 0.3 28/07/2019 10:30:00 AM 43 1518.54
44 0 0 28/07/2019 1:00:00 PM 0 0 all gates are closed at 1:00pm
45 1 0.3 03/08/2019 2:00:00 PM 38 1341.97
46 1 0.3 04/08/2019 12:01:00 AM 38 1341.97
47 0 0 04/08/2019 5:00:00 AM 0 0 all gates are closed at 5:0AM
48 1 0.3 05/08/2019 6:00:00 AM 38 1341.97
49 1 0.3 06/08/2019 12:01:00 AM 38 1341.97 0ne no. of gate opend since 5/8/2019 at 8:30pm
50 0 0 06/08/2019 4:00:00 AM 0 0 all gates are closed at 4am
51 7 0.5 08/08/2019 5:00:00 AM 444 15679.86 each gate opening 0.50m,passing discharge Q=444cumec,since5:45pm 7/8/2019
52 2 0.5 07/08/2019 4:00:00 AM 127 4486.42
53 3 0.5 07/08/2019 11:00:00 AM 190.5 6727.51
54 4 0.5 07/08/2019 3:00:00 AM 253 8934.69
55 4 0.5 07/08/2019 3:00:00 PM 253 8934.69
56 7 0.5 07/08/2019 5:45:00 PM 444 15679.86
57 0 0 08/08/2019 5:00:00 AM 0 0 All gates closed at 5:00am
58 7 0.5 08/08/2019 12:01:00 AM 444 15679.86
59 6 0.5 09/08/2019 8:00:00 AM 381.5 13473.38
60 7 0.5 09/08/2019 4:10:00 PM 445 15715.17
61 7 0.5 10/08/2019 12:19:00 AM 445 15715.17
62 0 0 10/08/2019 1:00:00 AM 0 0 All gates closed
63 1 0.3 12/08/2019 10:30:00 AM 10 353.15
64 2 0.3 13/08/2019 12:03:00 AM 76 2683.94
65 0 0 13/08/2019 9:00:00 AM 0 0 all gates are closed at 9:00AM
66 1 0.5 13/08/2019 7:00:00 PM 67 2366.11
67 1 0.5 14/08/2019 12:01:00 AM 67 2366.11
68 7 1.5 14/08/2019 9:00:00 AM 1232 43508.08
69 6 2 14/08/2019 1:32:00 PM 1344 47463.36
70 6 1 15/08/2019 4:40:00 AM 732 25850.58
71 6 1 14/08/2019 8:00:00 PM 732 25850.58
72 6 0.5 15/08/2019 8:00:00 AM 379 13384.38
73 6 1.5 15/08/2019 4:00:00 PM 458.2 16181.33
74 0 0 16/08/2019 3:00:00 PM 0 0 All gates are closed
75 0 0 22/08/2019 8:00:00 AM 0 0 All gates are closed
76 0 0 21/08/2019 7:00:00 PM 0 0 aaaaaaaaaaaaaaaaaaaaaaaaaaaaaaaaaa all gates are closed
77 1 0.3 21/08/2019 8:40:00 AM 38 1341.97
78 1 0.3 20/08/2019 6:00:00 AM 38 1341.97
79 1 0.3 20/08/2019 8:00:00 PM 38 1341.97
80 1 0.3 22/08/2019 12:01:00 AM 38 1341.97 gate opening since 218/2019at4pm
81 1 0.3 23/08/2019 1:00:00 PM 20 706.3
82 1 0.3 24/08/2019 12:10:00 AM 20 706.3
83 0 0 24/08/2019 4:00:00 AM 0 0 All gates are closed
84 1 0.3 25/08/2019 8:00:00 AM 38 1341.97
85 1 0.3 26/08/2019 12:16:00 AM 38 1341.97
86 2 0.8 27/08/2019 4:00:00 PM 70.79 2499.95
87 4 0.8 27/08/2019 8:00:00 PM 396.6 14005.93
88 4 0.8 28/08/2019 12:01:00 AM 396.6 14005.93
89 2 0.5 28/08/2019 12:15:00 PM 125 4414.38
90 1 0.05 30/08/2019 12:00:00 PM 7 247.2
91 2 0.5 29/08/2019 12:01:00 AM 125 4414.38
92 1 0.1 29/08/2019 12:00:00 PM 13 459.09
93 1 0.05 31/08/2019 12:01:00 AM 7 247.2
94 0 0 31/08/2019 12:05:00 AM 0 0
95 1 0.1 03/09/2019 11:20:00 AM 13 459.09
96 1 0.05 01/09/2019 5:45:00 PM 7 247.2
97 0 0 02/09/2019 8:00:00 AM 0 0 all gates are closed
98 1 0.05 02/09/2019 7:00:00 AM 7 247.2
99 1 0.5 02/09/2019 5:15:00 PM 42 1483.23
100 1 0.5 03/09/2019 12:01:00 AM 42 1483.23
101 1 0.1 04/09/2019 8:00:00 AM 13 459.09
102 1 0.75 05/09/2019 11:49:00 AM 90 3178.35
103 1 0.2 06/09/2019 9:44:00 AM 25 882.88
104 1 0.2 06/09/2019 4:00:00 PM 25 882.88
105 1 0.2 07/09/2019 12:01:00 AM 25 882.88
106 1 0.2 07/09/2019 12:15:00 PM 25 882.88
107 1 0.1 07/09/2019 8:00:00 PM 13 459.09
108 1 0.1 08/09/2019 8:00:00 AM 13 459.09
109 1 0.2 08/09/2019 7:15:00 PM 26 918.19
110 1 0.2 09/09/2019 3:00:00 AM 26 918.19
111 3 1 09/09/2019 4:00:00 PM 370 13066.55
112 1 0.2 10/09/2019 8:00:00 AM 25 882.88
113 1 0.3 10/09/2019 1:00:00 PM 33 1165.39
114 1 0.3 11/09/2019 6:00:00 AM 33 1165.39
115 1 0.1 11/09/2019 8:00:00 AM 13 459.09
116 2 0.4 12/09/2019 8:00:00 PM 80 2825.2
117 7 1.5 13/09/2019 4:00:00 PM 1232 43508.08
118 2 0.4 13/09/2019 3:32:00 AM 80 2825.2
119 5 1.5 13/09/2019 10:30:00 AM 880 31077.2
120 3 1.5 14/09/2019 12:01:00 AM 424.7 14998.28
121 7 2 14/09/2019 12:00:00 PM 1575 55621.13
122 7 2.21 14/09/2019 4:00:00 PM 1698 59964.87
123 1 0.7 15/09/2019 9:00:00 AM 75 2648.63
124 1 0.7 16/09/2019 8:00:00 PM 75 2648.63
125 1 0.7 17/09/2019 12:01:00 AM 75 2648.63
126 0 0 17/09/2019 2:00:00 AM 0 0
127 0 0 21/09/2019 9:00:00 AM 0 0 All Gates are closed
128 0 0 22/09/2019 9:00:00 AM 0 0 All Gates are closed.
129 0 0 22/09/2019 10:00:00 AM 0 0 All Gates are closed
130 2 0.25 24/09/2019 12:01:00 AM 40 1412.6
131 0 0 24/09/2019 8:10:00 AM 0 0
132 2 0.3 22/09/2019 4:00:00 PM 70 2472.05
133 4 1 28/09/2019 9:20:00 AM 488 17233.72
134 1 0.1 24/09/2019 8:00:00 AM 13 459.09
135 2 0.5 23/09/2019 8:00:00 AM 125 4414.38
136 2 0.3 23/09/2019 1:11:00 AM 70 2472.05
137 2 0.25 23/09/2019 8:00:00 PM 40 1412.6
138 1 0.5 28/09/2019 4:00:00 PM 51 1801.06
139 1 0.5 29/09/2019 12:01:00 AM 51 1801.06
140 1 0.5 29/09/2019 9:00:00 AM 51 1801.06
141 8 1 01/10/2019 4:00:00 PM 1000 35315
142 1 0.2 30/09/2019 9:30:00 AM 25 882.88
143 1 0.2 30/09/2019 12:01:00 AM 25 882.88
144 4 0.75 01/10/2019 12:00:00 PM 325 11477.38
145 2 0.5 01/10/2019 8:00:00 AM 125 4414.38
146 1 0.3 03/10/2019 4:00:00 PM 27 953.5
147 1 0.5 03/10/2019 8:00:00 AM 63 2224.84
148 1 0.3 03/10/2019 4:00:00 PM 27 953.5
149 0 0 02/10/2019 4:00:00 PM 0 0 all gates are closed
150 1 0.15 06/10/2019 9:00:00 AM 19 670.98
151 1 0.4 04/10/2019 12:01:00 AM 27 953.5
152 1 0.3 04/10/2019 12:00:00 PM 38 1341.97
153 1 0.15 04/10/2019 8:00:00 PM 19 670.98
154 1 0.2 10/10/2019 8:00:00 AM 25 882.88
155 1 0.3 13/10/2019 9:00:00 PM 19 670.98
156 1 0.3 09/10/2019 9:00:00 PM 38 1341.97
157 1 0.15 10/10/2019 4:00:00 AM 10.66 376.46
158 1 0.3 05/10/2019 8:00:00 AM 38 1341.97
159 1 0.15 07/10/2019 12:01:00 AM 19 670.98 All gate are open since 6.10.2019 at10pm
160 0 0 10/10/2019 4:00:00 PM 0 0 All gates are closed
161 1 0.3 10/10/2019 12:01:00 AM 38 1341.97
Powered by © Water Resources Department (MP). All Rights Reserved.